createdAt,value
2019-01-31T00:01:56.226Z,93509.53
2019-01-31T00:04:22.616Z,93517.38
2019-01-31T00:06:48.971Z,93523.33
2019-01-31T00:09:15.318Z,93530.09
2019-01-31T00:11:41.710Z,93537.94
2019-01-31T00:14:08.040Z,93538.75
2019-01-31T00:16:34.383Z,93530.18
2019-01-31T00:19:00.715Z,93536.81
2019-01-31T00:21:27.042Z,93534.34
2019-01-31T00:23:53.431Z,93536.81
2019-01-31T00:26:19.760Z,93541.48
2019-01-31T00:28:46.116Z,93545.91
2019-01-31T00:31:12.464Z,93553.30
2019-01-31T00:33:38.805Z,93554.72
2019-01-31T00:36:05.130Z,93552.16
2019-01-31T00:38:31.521Z,93551.20
2019-01-31T00:40:57.810Z,93556.30
2019-01-31T00:43:24.231Z,93558.87
2019-01-31T00:45:50.608Z,93557.75
2019-01-31T00:48:16.881Z,93554.02
2019-01-31T00:50:43.212Z,93555.78
2019-01-31T00:53:09.586Z,93553.37
2019-01-31T00:55:35.918Z,93563.96
2019-01-31T00:58:02.346Z,93563.65
2019-01-31T01:00:28.596Z,93565.88
2019-01-31T01:02:54.931Z,93566.17
2019-01-31T01:05:21.298Z,93564.95
2019-01-31T01:07:47.630Z,93567.44
2019-01-31T01:10:14.003Z,93566.69
2019-01-31T01:12:40.361Z,93568.21
2019-01-31T01:15:06.699Z,93566.51
2019-01-31T01:17:33.074Z,93563.65
2019-01-31T01:19:59.448Z,93557.41
2019-01-31T01:22:25.784Z,93555.94
2019-01-31T01:24:52.317Z,93556.55
2019-01-31T01:27:18.654Z,93555.67
2019-01-31T01:29:44.988Z,93551.13
2019-01-31T01:32:11.311Z,93552.70
2019-01-31T01:34:37.649Z,93544.63
2019-01-31T01:37:04.027Z,93541.31
2019-01-31T01:39:30.389Z,93542.05
2019-01-31T01:41:56.717Z,93540.38
2019-01-31T01:44:23.011Z,93541.58
2019-01-31T01:46:49.340Z,93538.67
2019-01-31T01:49:15.675Z,93545.64
2019-01-31T01:51:42.012Z,93548.73
2019-01-31T01:54:08.435Z,93548.73
2019-01-31T01:56:34.832Z,93547.14
2019-01-31T01:59:01.177Z,93546.37
2019-01-31T02:01:27.507Z,93546.45
2019-01-31T02:03:53.845Z,93548.48
2019-01-31T02:06:20.212Z,93552.80
2019-01-31T02:08:46.544Z,93554.64
2019-01-31T02:11:13.048Z,93551.44
2019-01-31T02:13:39.266Z,93548.41
2019-01-31T02:16:05.621Z,93554.95
2019-01-31T02:18:31.965Z,93549.00
2019-01-31T02:20:58.410Z,93548.45
2019-01-31T02:23:24.619Z,93552.34
2019-01-31T02:25:50.951Z,93550.90
2019-01-31T02:28:17.299Z,93553.98
2019-01-31T02:30:43.623Z,93554.50
2019-01-31T02:33:09.954Z,93562.25
2019-01-31T02:35:36.330Z,93560.97
2019-01-31T02:38:02.670Z,93561.62
2019-01-31T02:40:29.038Z,93558.75
2019-01-31T02:42:55.423Z,93562.95
2019-01-31T02:45:21.744Z,93562.64
2019-01-31T02:47:48.073Z,93557.50
2019-01-31T02:50:14.414Z,93551.41
2019-01-31T02:52:40.749Z,93545.48
2019-01-31T02:55:07.123Z,93546.91
2019-01-31T02:57:33.466Z,93548.20
2019-01-31T02:59:59.789Z,93538.08
2019-01-31T03:02:26.159Z,93548.55
2019-01-31T03:04:52.505Z,93540.52
2019-01-31T03:07:18.833Z,93541.80
2019-01-31T03:09:54.545Z,93538.77
2019-01-31T03:12:11.558Z,93537.30
2019-01-31T03:14:37.879Z,93543.27
2019-01-31T03:17:04.213Z,93537.30
2019-01-31T03:19:30.560Z,93532.84
2019-01-31T03:21:56.917Z,93532.16
2019-01-31T03:24:23.277Z,93536.70
2019-01-31T03:26:49.620Z,93536.39
2019-01-31T03:29:15.965Z,93542.66
2019-01-31T03:31:42.328Z,93546.86
2019-01-31T03:34:08.654Z,93543.47
2019-01-31T03:36:35.000Z,93545.09
2019-01-31T03:39:01.348Z,93548.18
2019-01-31T03:41:27.676Z,93550.89
2019-01-31T03:43:54.032Z,93556.07
2019-01-31T03:46:20.365Z,93557.19
2019-01-31T03:48:46.696Z,93556.07
2019-01-31T03:51:13.107Z,93551.40
2019-01-31T03:53:39.565Z,93551.53
2019-01-31T03:56:05.777Z,93549.41
2019-01-31T03:58:32.115Z,93549.57
2019-01-31T04:00:58.446Z,93543.95
2019-01-31T04:03:24.834Z,93538.19
2019-01-31T04:05:51.170Z,93532.73
2019-01-31T04:08:17.546Z,93536.33
2019-01-31T04:10:43.875Z,93536.63
2019-01-31T04:13:10.263Z,93531.98
2019-01-31T04:15:36.525Z,93528.63
2019-01-31T04:18:02.863Z,93536.38
2019-01-31T04:20:29.199Z,93536.69
2019-01-31T04:22:55.539Z,93524.02
2019-01-31T04:25:21.859Z,93529.80
2019-01-31T04:27:48.209Z,93521.77
2019-01-31T04:30:14.539Z,93525.48
2019-01-31T04:32:40.871Z,93527.27
2019-01-31T04:35:07.227Z,93528.25
2019-01-31T04:37:33.576Z,93528.59
2019-01-31T04:39:59.907Z,93534.08
2019-01-31T04:42:26.241Z,93529.09
2019-01-31T04:44:52.577Z,93532.95
2019-01-31T04:47:18.910Z,93533.29
2019-01-31T04:49:45.252Z,93526.04
2019-01-31T04:52:11.630Z,93524.27
2019-01-31T04:54:37.958Z,93527.97
2019-01-31T04:57:04.348Z,93524.77
2019-01-31T04:59:30.665Z,93531.72
2019-01-31T05:01:57.022Z,93523.81
2019-01-31T05:04:23.362Z,93503.86
2019-01-31T05:06:49.705Z,93523.22
2019-01-31T05:09:16.057Z,93526.12
2019-01-31T05:11:42.396Z,93519.04
2019-01-31T05:14:08.722Z,93536.14
2019-01-31T05:16:35.073Z,93545.56
2019-01-31T05:19:01.427Z,93548.67
2019-01-31T05:21:27.774Z,93544.97
2019-01-31T05:23:54.146Z,93545.64
2019-01-31T05:26:20.516Z,93548.55
2019-01-31T05:28:46.881Z,93556.06
2019-01-31T05:31:13.242Z,93555.28
2019-01-31T05:33:39.588Z,93550.61
2019-01-31T05:36:06.008Z,93556.27
2019-01-31T05:38:32.341Z,93550.64
2019-01-31T05:40:58.681Z,93553.86
2019-01-31T05:43:25.027Z,93554.84
2019-01-31T05:45:51.357Z,93558.53
2019-01-31T05:48:17.769Z,93559.03
2019-01-31T05:50:44.105Z,93564.04
2019-01-31T05:53:10.474Z,93562.41
2019-01-31T05:55:36.796Z,93561.47
2019-01-31T05:58:03.201Z,93564.04
2019-01-31T06:00:29.532Z,93563.05
2019-01-31T06:02:55.877Z,93570.31
2019-01-31T06:05:22.256Z,93570.66
2019-01-31T06:07:48.577Z,93577.55
2019-01-31T06:10:14.926Z,93577.41
2019-01-31T06:12:41.293Z,93568.56
2019-01-31T06:15:07.624Z,93569.83
2019-01-31T06:17:36.003Z,93577.88
2019-01-31T06:20:02.376Z,93572.58
2019-01-31T06:22:28.730Z,93570.31
2019-01-31T06:24:55.060Z,93569.06
2019-01-31T06:27:21.495Z,93566.51
2019-01-31T06:29:47.810Z,93571.52
2019-01-31T06:32:14.120Z,93574.41
2019-01-31T06:34:40.488Z,93587.78
2019-01-31T06:37:06.939Z,93587.59
2019-01-31T06:39:33.318Z,93582.77
2019-01-31T06:41:59.834Z,93600.97
2019-01-31T06:44:26.216Z,93603.10
2019-01-31T06:46:52.546Z,93602.31
2019-01-31T06:49:18.901Z,93595.72
2019-01-31T06:51:45.270Z,93601.84
2019-01-31T06:54:11.642Z,93602.48
2019-01-31T06:56:38.019Z,93600.29
2019-01-31T06:59:04.373Z,93594.81
2019-01-31T07:01:30.862Z,93588.52
2019-01-31T07:03:57.268Z,93591.90
2019-01-31T07:06:23.724Z,93591.73
2019-01-31T07:08:50.441Z,93605.97
2019-01-31T07:11:16.904Z,93613.66
2019-01-31T07:13:43.326Z,93601.61
2019-01-31T07:16:09.673Z,93606.13
2019-01-31T07:18:42.853Z,93609.83
2019-01-31T07:21:11.943Z,93605.95
2019-01-31T07:23:38.283Z,93603.23
2019-01-31T07:26:04.663Z,93610.18
2019-01-31T07:28:31.152Z,93598.87
2019-01-31T07:30:58.025Z,93607.11
2019-01-31T07:33:24.431Z,93602.58
2019-01-31T07:35:52.172Z,93601.80
2019-01-31T07:38:17.151Z,93604.22
2019-01-31T07:40:43.501Z,93609.54
2019-01-31T07:43:09.912Z,93606.13
2019-01-31T07:45:36.388Z,93609.70
2019-01-31T07:48:02.860Z,93606.30
2019-01-31T07:50:30.487Z,93609.53
2019-01-31T07:52:57.011Z,93604.52
2019-01-31T07:55:23.246Z,93605.84
2019-01-31T07:57:49.893Z,93600.32
2019-01-31T08:00:16.212Z,93601.91
2019-01-31T08:02:42.672Z,93598.88
2019-01-31T08:05:09.020Z,93593.39
2019-01-31T08:07:35.394Z,93598.19
2019-01-31T08:10:01.738Z,93595.16
2019-01-31T08:12:28.148Z,93593.02
2019-01-31T08:14:54.730Z,93588.52
2019-01-31T08:17:21.052Z,93582.72
2019-01-31T08:19:47.578Z,93588.66
2019-01-31T08:22:13.926Z,93584.97
2019-01-31T08:24:40.465Z,93585.60
2019-01-31T08:27:06.798Z,93574.13
2019-01-31T08:29:35.563Z,93587.08
2019-01-31T08:32:01.925Z,93593.53
2019-01-31T08:34:29.642Z,93588.03
2019-01-31T08:36:54.988Z,93597.41
2019-01-31T08:39:21.307Z,93595.12
2019-01-31T08:41:48.152Z,93595.45
2019-01-31T08:44:14.562Z,93595.60
2019-01-31T08:46:40.981Z,93601.09
2019-01-31T08:49:07.436Z,93610.30
2019-01-31T08:51:33.763Z,93604.17
2019-01-31T08:54:00.428Z,93606.56
2019-01-31T08:56:26.850Z,93608.52
2019-01-31T08:58:53.815Z,93596.23
2019-01-31T09:01:20.400Z,93609.62
2019-01-31T09:03:46.888Z,93608.81
2019-01-31T09:06:15.062Z,93601.09
2019-01-31T09:08:39.793Z,93600.58
2019-01-31T09:11:06.045Z,93603.69
2019-01-31T09:13:32.528Z,93601.25
2019-01-31T09:15:59.382Z,93597.67
2019-01-31T09:18:25.753Z,93600.25
2019-01-31T09:20:52.090Z,93600.25
2019-01-31T09:23:18.499Z,93601.09
2019-01-31T09:25:44.863Z,93607.71
2019-01-31T09:28:11.205Z,93603.35
2019-01-31T09:30:37.599Z,93599.48
2019-01-31T09:33:04.012Z,93599.00
2019-01-31T09:35:30.366Z,93600.17
2019-01-31T09:37:56.940Z,93598.37
2019-01-31T09:40:23.176Z,93601.77
2019-01-31T09:42:49.561Z,93598.04
2019-01-31T09:45:15.891Z,93594.79
2019-01-31T09:47:42.225Z,93594.94
2019-01-31T09:50:08.603Z,93599.33
2019-01-31T09:52:34.980Z,93595.30
2019-01-31T09:55:01.314Z,93589.33
2019-01-31T09:57:27.774Z,93590.11
2019-01-31T09:59:54.119Z,93590.29
2019-01-31T10:02:20.457Z,93587.41
2019-01-31T10:04:46.793Z,93582.39
2019-01-31T10:07:13.175Z,93579.48
2019-01-31T10:09:39.631Z,93582.55
2019-01-31T10:12:05.988Z,93580.28
2019-01-31T10:14:32.385Z,93579.47
2019-01-31T10:16:58.725Z,93572.39
2019-01-31T10:19:25.188Z,93570.28
2019-01-31T10:21:51.436Z,93562.87
2019-01-31T10:24:17.835Z,93562.58
2019-01-31T10:26:44.173Z,93559.81
2019-01-31T10:29:10.686Z,93560.91
2019-01-31T10:31:37.031Z,93561.58
2019-01-31T10:34:03.436Z,93562.50
2019-01-31T10:36:29.772Z,93561.09
2019-01-31T10:38:56.180Z,93559.28
2019-01-31T10:41:22.554Z,93563.49
2019-01-31T10:43:48.953Z,93557.00
2019-01-31T10:46:15.327Z,93557.19
2019-01-31T10:48:41.659Z,93557.37
2019-01-31T10:51:08.180Z,93549.77
2019-01-31T10:53:34.575Z,93551.05
2019-01-31T10:56:00.928Z,93558.14
2019-01-31T10:58:27.275Z,93555.23
2019-01-31T11:00:53.631Z,93559.42
2019-01-31T11:03:20.036Z,93552.83
2019-01-31T11:05:46.373Z,93559.10
2019-01-31T11:08:12.816Z,93561.83
2019-01-31T11:10:39.169Z,93563.31
2019-01-31T11:13:05.607Z,93563.31
2019-01-31T11:15:31.966Z,93563.16
2019-01-31T11:17:58.328Z,93561.39
2019-01-31T11:20:24.765Z,93559.28
2019-01-31T11:22:51.098Z,93556.36
2019-01-31T11:25:17.625Z,93556.70
2019-01-31T11:27:43.973Z,93558.15
2019-01-31T11:30:10.499Z,93550.55
2019-01-31T11:32:38.602Z,93553.94
2019-01-31T11:35:03.456Z,93552.83
2019-01-31T11:37:29.889Z,93548.77
2019-01-31T11:39:56.245Z,93548.47
2019-01-31T11:42:22.663Z,93553.11
2019-01-31T11:44:49.088Z,93550.48
2019-01-31T11:47:15.457Z,93550.82
2019-01-31T11:49:41.859Z,93550.20
2019-01-31T11:52:08.403Z,93550.06
2019-01-31T11:54:34.779Z,93547.42
2019-01-31T11:57:05.591Z,93549.38
2019-01-31T11:59:27.527Z,93551.30
2019-01-31T12:01:54.306Z,93540.48
2019-01-31T12:04:20.707Z,93547.27
2019-01-31T12:06:47.063Z,93549.35
2019-01-31T12:09:13.635Z,93544.20
2019-01-31T12:11:40.961Z,93539.86
2019-01-31T12:14:07.342Z,93536.27
2019-01-31T12:16:33.725Z,93536.94
2019-01-31T12:19:00.072Z,93541.48
2019-01-31T12:21:26.521Z,93538.51
2019-01-31T12:23:52.942Z,93537.75
2019-01-31T12:26:19.428Z,93537.60
2019-01-31T12:28:45.815Z,93533.11
2019-01-31T12:31:12.183Z,93542.59
2019-01-31T12:33:38.569Z,93543.41
2019-01-31T12:36:05.011Z,93542.09
2019-01-31T12:38:36.805Z,93542.44
2019-01-31T12:40:58.867Z,93540.20
2019-01-31T12:43:34.635Z,93544.88
2019-01-31T12:45:51.677Z,93541.11
2019-01-31T12:48:18.109Z,93543.06
2019-01-31T12:50:44.528Z,93541.30
2019-01-31T12:53:10.909Z,93546.03
2019-01-31T12:55:37.370Z,93538.42
2019-01-31T12:58:03.836Z,93544.22
2019-01-31T13:00:30.189Z,93544.02
2019-01-31T13:02:56.561Z,93536.47
2019-01-31T13:05:22.919Z,93535.84
2019-01-31T13:07:49.349Z,93537.60
2019-01-31T13:10:15.692Z,93537.06
2019-01-31T13:12:48.814Z,93536.33
2019-01-31T13:15:09.469Z,93539.88
2019-01-31T13:17:38.109Z,93535.70
2019-01-31T13:20:04.393Z,93534.55
2019-01-31T13:22:30.749Z,93533.30
2019-01-31T13:24:57.110Z,93535.71
2019-01-31T13:27:23.471Z,93535.41
2019-01-31T13:29:49.825Z,93531.69
2019-01-31T13:32:16.234Z,93539.30
2019-01-31T13:34:42.676Z,93542.16
2019-01-31T13:37:09.073Z,93543.45
2019-01-31T13:39:35.427Z,93544.27
2019-01-31T13:42:01.778Z,93549.77
2019-01-31T13:44:28.182Z,93548.95
2019-01-31T13:46:54.535Z,93550.25
2019-01-31T13:49:20.916Z,93551.55
2019-01-31T13:51:47.306Z,93552.84
2019-01-31T13:54:13.650Z,93554.46
2019-01-31T13:56:45.708Z,93557.37
2019-01-31T13:59:06.450Z,93558.81
2019-01-31T14:01:32.807Z,93561.39
2019-01-31T14:03:59.364Z,93561.58
2019-01-31T14:06:25.843Z,93561.72
2019-01-31T14:08:52.327Z,93563.50
2019-01-31T14:11:20.871Z,93563.50
2019-01-31T14:13:47.332Z,93560.59
2019-01-31T14:16:13.720Z,93566.23
2019-01-31T14:18:42.180Z,93562.87
2019-01-31T14:21:08.579Z,93565.93
2019-01-31T14:23:35.021Z,93574.94
2019-01-31T14:26:01.412Z,93569.66
2019-01-31T14:28:27.989Z,93575.45
2019-01-31T14:30:54.627Z,93570.91
2019-01-31T14:33:20.913Z,93574.31
2019-01-31T14:35:47.235Z,93581.72
2019-01-31T14:38:13.626Z,93578.67
2019-01-31T14:40:39.982Z,93577.55
2019-01-31T14:43:06.364Z,93579.62
2019-01-31T14:45:32.729Z,93582.55
2019-01-31T14:47:59.106Z,93579.81
2019-01-31T14:50:25.478Z,93589.18
2019-01-31T14:52:51.840Z,93594.16
2019-01-31T14:55:18.292Z,93597.08
2019-01-31T14:57:44.651Z,93601.58
2019-01-31T15:00:10.982Z,93603.20
2019-01-31T15:02:37.334Z,93605.79
2019-01-31T15:05:03.671Z,93612.09
2019-01-31T15:07:30.149Z,93614.69
2019-01-31T15:09:56.498Z,93616.75
2019-01-31T15:12:22.828Z,93611.44
2019-01-31T15:14:49.286Z,93614.05
2019-01-31T15:17:15.605Z,93620.84
2019-01-31T15:19:41.934Z,93617.74
2019-01-31T15:22:08.270Z,93624.69
2019-01-31T15:24:34.601Z,93626.61
2019-01-31T15:27:01.004Z,93629.52
2019-01-31T15:29:27.375Z,93634.51
2019-01-31T15:31:56.182Z,93644.52
2019-01-31T15:34:22.645Z,93649.53
2019-01-31T15:36:49.044Z,93661.97
2019-01-31T15:39:15.297Z,93683.45
2019-01-31T15:41:41.682Z,93692.33
2019-01-31T15:44:08.019Z,93686.84
2019-01-31T15:46:34.420Z,93697.66
2019-01-31T15:49:00.880Z,93708.47
2019-01-31T15:51:27.307Z,93706.55
2019-01-31T15:53:55.534Z,93714.45
2019-01-31T15:56:21.878Z,93720.28
2019-01-31T15:58:48.208Z,93725.77
2019-01-31T16:01:14.551Z,93735.45
2019-01-31T16:03:41.036Z,93742.55
2019-01-31T16:06:07.389Z,93741.26
2019-01-31T16:08:33.741Z,93749.16
2019-01-31T16:11:00.117Z,93755.47
2019-01-31T16:13:26.445Z,93757.90
2019-01-31T16:15:56.061Z,93762.25
2019-01-31T16:18:22.370Z,93767.42
2019-01-31T16:20:48.745Z,93774.84
2019-01-31T16:23:15.087Z,93774.83
2019-01-31T16:25:41.571Z,93779.50
2019-01-31T16:28:08.013Z,93789.36
2019-01-31T16:30:34.488Z,93793.23
2019-01-31T16:33:00.737Z,93794.83
2019-01-31T16:35:27.072Z,93800.79
2019-01-31T16:37:53.429Z,93800.80
2019-01-31T16:40:19.771Z,93804.34
2019-01-31T16:42:46.162Z,93810.48
2019-01-31T16:45:12.521Z,93813.08
2019-01-31T16:47:38.928Z,93810.30
2019-01-31T16:50:05.387Z,93812.74
2019-01-31T16:52:31.750Z,93819.20
2019-01-31T16:54:58.107Z,93824.67
2019-01-31T16:57:24.492Z,93833.50
2019-01-31T16:59:50.848Z,93831.06
2019-01-31T17:02:17.210Z,93833.05
2019-01-31T17:04:43.553Z,93840.08
2019-01-31T17:07:09.960Z,93839.27
2019-01-31T17:09:39.392Z,93839.39
2019-01-31T17:12:04.696Z,93842.17
2019-01-31T17:14:31.035Z,93841.52
2019-01-31T17:16:57.404Z,93848.42
2019-01-31T17:19:23.870Z,93854.53
2019-01-31T17:21:50.218Z,93854.89
2019-01-31T17:24:16.665Z,93856.58
2019-01-31T17:26:43.009Z,93852.59
2019-01-31T17:29:09.396Z,93852.28
2019-01-31T17:31:35.735Z,93856.61
2019-01-31T17:34:02.076Z,93854.39
2019-01-31T17:36:28.536Z,93861.55
2019-01-31T17:38:54.907Z,93868.05
2019-01-31T17:41:21.349Z,93872.41
2019-01-31T17:43:48.282Z,93868.70
2019-01-31T17:46:13.972Z,93879.13
2019-01-31T17:48:40.384Z,93880.25
2019-01-31T17:51:06.721Z,93881.52
2019-01-31T17:53:33.045Z,93884.12
2019-01-31T17:55:59.394Z,93889.90
2019-01-31T17:58:25.715Z,93895.84
2019-01-31T18:00:52.046Z,93893.94
2019-01-31T18:03:18.416Z,93897.13
2019-01-31T18:05:44.798Z,93897.30
2019-01-31T18:08:11.125Z,93903.92
2019-01-31T18:10:37.534Z,93909.73
2019-01-31T18:13:05.611Z,93912.13
2019-01-31T18:15:41.177Z,93916.00
2019-01-31T18:17:56.568Z,93922.92
2019-01-31T18:20:22.964Z,93932.91
2019-01-31T18:22:49.314Z,93929.38
2019-01-31T18:25:15.645Z,93918.34
2019-01-31T18:27:41.978Z,93940.13
2019-01-31T18:30:08.306Z,93940.27
2019-01-31T18:32:34.682Z,93948.52
2019-01-31T18:35:01.040Z,93943.31
2019-01-31T18:37:27.433Z,93944.27
2019-01-31T18:39:53.732Z,93944.27
2019-01-31T18:42:20.138Z,93950.51
2019-01-31T18:44:46.449Z,93951.15
2019-01-31T18:47:12.791Z,93957.60
2019-01-31T18:49:39.145Z,93957.87
2019-01-31T18:52:05.495Z,93963.37
2019-01-31T18:54:31.860Z,93967.06
2019-01-31T18:56:58.203Z,93969.30
2019-01-31T18:59:24.538Z,93974.94
2019-01-31T19:01:50.909Z,93969.42
2019-01-31T19:04:17.263Z,93974.72
2019-01-31T19:06:43.614Z,93986.19
2019-01-31T19:09:09.983Z,93985.84
2019-01-31T19:11:36.359Z,93988.89
2019-01-31T19:14:02.691Z,93998.56
2019-01-31T19:16:29.013Z,94004.36
2019-01-31T19:18:55.352Z,93998.86
2019-01-31T19:21:21.699Z,93993.77
2019-01-31T19:23:48.043Z,94002.20
2019-01-31T19:26:14.432Z,93995.71
2019-01-31T19:28:40.772Z,94004.73
2019-01-31T19:31:07.099Z,94006.66
2019-01-31T19:33:33.438Z,94006.80
2019-01-31T19:35:59.811Z,94013.75
2019-01-31T19:38:26.211Z,94013.23
2019-01-31T19:40:52.539Z,94020.19
2019-01-31T19:43:18.912Z,94023.53
2019-01-31T19:45:45.297Z,94034.32
2019-01-31T19:48:11.647Z,94036.55
2019-01-31T19:50:38.033Z,94045.88
2019-01-31T19:53:04.409Z,94049.61
2019-01-31T19:55:30.739Z,94050.55
2019-01-31T19:57:57.178Z,94056.18
2019-01-31T20:00:23.456Z,94057.89
2019-01-31T20:02:49.794Z,94058.23
2019-01-31T20:05:16.135Z,94060.97
2019-01-31T20:07:42.564Z,94058.69
2019-01-31T20:10:08.912Z,94053.84
2019-01-31T20:12:35.290Z,94063.02
2019-01-31T20:15:01.574Z,94063.63
2019-01-31T20:17:27.928Z,94062.50
2019-01-31T20:19:54.267Z,94064.26
2019-01-31T20:22:20.624Z,94067.31
2019-01-31T20:24:46.956Z,94070.52
2019-01-31T20:27:13.322Z,94083.23
2019-01-31T20:29:39.654Z,94085.98
2019-01-31T20:32:06.002Z,94094.00
2019-01-31T20:34:32.327Z,94089.66
2019-01-31T20:36:58.657Z,94099.75
2019-01-31T20:39:25.032Z,94105.72
2019-01-31T20:41:54.463Z,94121.53
2019-01-31T20:44:17.726Z,94117.13
2019-01-31T20:46:44.109Z,94117.23
2019-01-31T20:49:10.457Z,94120.12
2019-01-31T20:51:36.779Z,94128.83
2019-01-31T20:54:03.185Z,94128.83
2019-01-31T20:56:29.550Z,94132.22
2019-01-31T20:58:55.924Z,94133.06
2019-01-31T21:01:22.272Z,94137.88
2019-01-31T21:03:49.676Z,94134.52
2019-01-31T21:06:15.063Z,94143.84
2019-01-31T21:08:41.388Z,94155.78
2019-01-31T21:11:07.803Z,94154.97
2019-01-31T21:13:34.090Z,94151.73
2019-01-31T21:16:00.533Z,94152.33
2019-01-31T21:18:26.881Z,94155.37
2019-01-31T21:20:53.265Z,94166.78
2019-01-31T21:23:19.621Z,94165.65
2019-01-31T21:25:45.979Z,94183.88
2019-01-31T21:28:12.422Z,94196.21
2019-01-31T21:30:38.808Z,94189.30
2019-01-31T21:33:05.146Z,94203.75
2019-01-31T21:35:31.479Z,94210.85
2019-01-31T21:37:57.826Z,94210.66
2019-01-31T21:40:24.165Z,94215.81
2019-01-31T21:42:50.573Z,94215.63
2019-01-31T21:45:16.902Z,94213.17
2019-01-31T21:47:43.222Z,94208.71
2019-01-31T21:50:09.590Z,94220.15
2019-01-31T21:52:35.927Z,94218.66
2019-01-31T21:55:02.304Z,94228.55
2019-01-31T21:57:28.761Z,94233.94
2019-01-31T21:59:55.022Z,94231.56
2019-01-31T22:02:21.344Z,94240.16
2019-01-31T22:04:47.669Z,94244.29
2019-01-31T22:07:14.013Z,94249.98
2019-01-31T22:09:40.364Z,94245.11
2019-01-31T22:12:06.759Z,94250.18
2019-01-31T22:14:33.057Z,94251.96
2019-01-31T22:16:59.384Z,94242.88
2019-01-31T22:19:25.714Z,94260.42
2019-01-31T22:21:52.056Z,94267.09
2019-01-31T22:24:18.524Z,94264.91
2019-01-31T22:26:44.923Z,94271.45
2019-01-31T22:29:11.295Z,94267.93
2019-01-31T22:31:37.657Z,94269.37
2019-01-31T22:34:04.007Z,94270.37
2019-01-31T22:36:30.338Z,94281.45
2019-01-31T22:38:56.675Z,94279.14
2019-01-31T22:41:23.046Z,94288.14
2019-01-31T22:43:50.530Z,94288.88
2019-01-31T22:46:15.720Z,94286.71
2019-01-31T22:48:42.023Z,94289.89
2019-01-31T22:51:08.426Z,94289.45
2019-01-31T22:53:34.722Z,94293.20
2019-01-31T22:56:01.084Z,94293.11
2019-01-31T22:58:27.414Z,94302.46
2019-01-31T23:00:53.733Z,94297.70
2019-01-31T23:03:20.075Z,94297.05
2019-01-31T23:05:46.403Z,94292.37
2019-01-31T23:08:12.803Z,94290.30
2019-01-31T23:10:39.140Z,94292.81
2019-01-31T23:13:05.468Z,94299.16
2019-01-31T23:15:31.802Z,94305.48
2019-01-31T23:17:58.134Z,94312.88
2019-01-31T23:20:24.495Z,94312.88
2019-01-31T23:22:50.869Z,94315.09
2019-01-31T23:25:17.159Z,94315.71
2019-01-31T23:27:43.503Z,94319.00
2019-01-31T23:30:09.832Z,94313.51
2019-01-31T23:32:36.168Z,94319.27
2019-01-31T23:35:02.508Z,94321.26
2019-01-31T23:37:28.932Z,94318.55
2019-01-31T23:39:55.260Z,94326.20
2019-01-31T23:42:21.603Z,94323.14
2019-01-31T23:44:47.933Z,94322.46
2019-01-31T23:47:14.305Z,94326.19
2019-01-31T23:49:40.637Z,94323.62
2019-01-31T23:52:06.968Z,94329.98
2019-01-31T23:54:33.314Z,94325.63
2019-01-31T23:56:59.649Z,94329.83
2019-01-31T23:59:25.979Z,94332.05
